sensor_id;sensor_type;location;lat;lon;timestamp;pressure;altitude;pressure_sealevel;temperature;humidity
45255;BME280;30989;52.078;21.014;2023-04-07T00:00:56;164604.13;;;3.26;100.00
45255;BME280;30989;52.078;21.014;2023-04-07T00:03:22;164606.81;;;3.27;100.00
45255;BME280;30989;52.078;21.014;2023-04-07T00:05:47;164601.47;;;3.25;100.00
45255;BME280;30989;52.078;21.014;2023-04-07T00:08:13;164612.13;;;3.29;100.00
45255;BME280;30989;52.078;21.014;2023-04-07T00:10:38;164614.81;;;3.30;100.00
45255;BME280;30989;52.078;21.014;2023-04-07T00:13:04;164616.13;;;3.31;100.00
45255;BME280;30989;52.078;21.014;2023-04-07T00:15:30;164612.13;;;3.29;100.00
45255;BME280;30989;52.078;21.014;2023-04-07T00:17:55;164620.13;;;3.32;100.00
45255;BME280;30989;52.078;21.014;2023-04-07T00:20:21;164620.13;;;3.32;100.00
45255;BME280;30989;52.078;21.014;2023-04-07T00:22:47;164638.78;;;3.39;100.00
45255;BME280;30989;52.078;21.014;2023-04-07T00:25:12;164644.13;;;3.41;100.00
45255;BME280;30989;52.078;21.014;2023-04-07T00:27:38;164637.47;;;3.39;100.00
45255;BME280;30989;52.078;21.014;2023-04-07T00:30:04;164649.47;;;3.43;100.00
45255;BME280;30989;52.078;21.014;2023-04-07T00:32:30;164652.13;;;3.44;100.00
45255;BME280;30989;52.078;21.014;2023-04-07T00:34:55;164630.78;;;3.36;100.00
45255;BME280;30989;52.078;21.014;2023-04-07T00:37:21;164646.78;;;3.42;100.00
45255;BME280;30989;52.078;21.014;2023-04-07T00:39:46;164660.13;;;3.47;100.00
45255;BME280;30989;52.078;21.014;2023-04-07T00:42:12;164665.47;;;3.49;100.00
45255;BME280;30989;52.078;21.014;2023-04-07T00:44:37;164661.44;;;3.48;100.00
45255;BME280;30989;52.078;21.014;2023-04-07T00:47:03;164660.13;;;3.47;100.00
45255;BME280;30989;52.078;21.014;2023-04-07T00:49:29;164665.47;;;3.49;100.00
45255;BME280;30989;52.078;21.014;2023-04-07T00:51:57;164676.13;;;3.53;100.00
45255;BME280;30989;52.078;21.014;2023-04-07T00:54:23;164678.78;;;3.54;100.00
45255;BME280;30989;52.078;21.014;2023-04-07T00:56:48;164681.44;;;3.55;100.00
45255;BME280;30989;52.078;21.014;2023-04-07T00:59:14;164678.78;;;3.54;100.00
45255;BME280;30989;52.078;21.014;2023-04-07T01:01:45;164684.13;;;3.56;100.00
45255;BME280;30989;52.078;21.014;2023-04-07T01:04:25;164689.44;;;3.59;100.00
45255;BME280;30989;52.078;21.014;2023-04-07T01:06:56;164690.78;;;3.59;100.00
45255;BME280;30989;52.078;21.014;2023-04-07T01:09:40;164678.78;;;3.54;100.00
45255;BME280;30989;52.078;21.014;2023-04-07T01:12:33;164700.13;;;3.63;100.00
45255;BME280;30989;52.078;21.014;2023-04-07T01:15:08;164701.44;;;3.63;100.00
45255;BME280;30989;52.078;21.014;2023-04-07T01:17:42;164704.09;;;3.64;100.00
45255;BME280;30989;52.078;21.014;2023-04-07T01:20:15;164713.44;;;3.68;100.00
45255;BME280;30989;52.078;21.014;2023-04-07T01:22:46;164712.09;;;3.67;100.00
45255;BME280;30989;52.078;21.014;2023-04-07T01:28:19;164722.78;;;3.71;100.00
45255;BME280;30989;52.078;21.014;2023-04-07T01:30:53;164725.44;;;3.72;100.00
45255;BME280;30989;52.078;21.014;2023-04-07T01:33:21;164729.44;;;3.74;100.00
45255;BME280;30989;52.078;21.014;2023-04-07T01:35:48;164734.78;;;3.76;100.00
45255;BME280;30989;52.078;21.014;2023-04-07T01:38:16;164737.44;;;3.77;100.00
45255;BME280;30989;52.078;21.014;2023-04-07T01:40:42;164740.09;;;3.78;100.00
45255;BME280;30989;52.078;21.014;2023-04-07T01:43:09;164732.09;;;3.75;100.00
45255;BME280;30989;52.078;21.014;2023-04-07T01:45:36;164737.44;;;3.77;100.00
45255;BME280;30989;52.078;21.014;2023-04-07T01:48:05;164749.44;;;3.81;100.00
45255;BME280;30989;52.078;21.014;2023-04-07T01:50:32;164753.44;;;3.83;100.00
45255;BME280;30989;52.078;21.014;2023-04-07T01:52:58;164750.78;;;3.82;100.00
45255;BME280;30989;52.078;21.014;2023-04-07T01:55:24;164750.78;;;3.82;100.00
45255;BME280;30989;52.078;21.014;2023-04-07T01:58:06;164750.78;;;3.82;100.00
45255;BME280;30989;52.078;21.014;2023-04-07T02:00:33;164761.44;;;3.86;100.00
45255;BME280;30989;52.078;21.014;2023-04-07T02:03:10;164754.78;;;3.83;100.00
45255;BME280;30989;52.078;21.014;2023-04-07T02:05:37;164752.09;;;3.82;100.00
45255;BME280;30989;52.078;21.014;2023-04-07T02:08:07;164748.09;;;3.81;100.00
45255;BME280;30989;52.078;21.014;2023-04-07T02:10:36;164772.09;;;3.90;100.00
45255;BME280;30989;52.078;21.014;2023-04-07T02:13:04;164764.09;;;3.87;100.00
45255;BME280;30989;52.078;21.014;2023-04-07T02:15:30;164761.44;;;3.86;100.00
45255;BME280;30989;52.078;21.014;2023-04-07T02:17:57;164784.09;;;3.95;100.00
45255;BME280;30989;52.078;21.014;2023-04-07T02:20:23;164785.44;;;3.95;100.00
45255;BME280;30989;52.078;21.014;2023-04-07T02:22:49;164781.44;;;3.94;100.00
45255;BME280;30989;52.078;21.014;2023-04-07T02:25:34;164790.78;;;3.97;100.00
45255;BME280;30989;52.078;21.014;2023-04-07T02:28:02;164793.44;;;3.98;100.00
45255;BME280;30989;52.078;21.014;2023-04-07T02:30:28;164793.44;;;3.98;100.00
45255;BME280;30989;52.078;21.014;2023-04-07T02:32:54;164802.78;;;4.02;100.00
45255;BME280;30989;52.078;21.014;2023-04-07T02:35:20;164806.78;;;4.03;100.00
45255;BME280;30989;52.078;21.014;2023-04-07T02:37:46;164809.44;;;4.04;100.00
45255;BME280;30989;52.078;21.014;2023-04-07T02:40:12;164814.78;;;4.06;100.00
45255;BME280;30989;52.078;21.014;2023-04-07T02:42:38;164814.78;;;4.06;100.00
45255;BME280;30989;52.078;21.014;2023-04-07T02:45:04;164818.78;;;4.08;100.00
45255;BME280;30989;52.078;21.014;2023-04-07T02:47:30;164824.13;;;4.10;100.00
45255;BME280;30989;52.078;21.014;2023-04-07T02:49:56;164829.44;;;4.12;100.00
45255;BME280;30989;52.078;21.014;2023-04-07T02:52:21;164829.44;;;4.12;100.00
45255;BME280;30989;52.078;21.014;2023-04-07T02:54:47;164828.13;;;4.11;100.00
45255;BME280;30989;52.078;21.014;2023-04-07T02:57:13;164830.78;;;4.12;100.00
45255;BME280;30989;52.078;21.014;2023-04-07T02:59:38;164830.78;;;4.12;100.00
45255;BME280;30989;52.078;21.014;2023-04-07T03:02:06;164841.44;;;4.16;100.00
45255;BME280;30989;52.078;21.014;2023-04-07T03:04:33;164836.13;;;4.14;100.00
45255;BME280;30989;52.078;21.014;2023-04-07T03:06:58;164842.78;;;4.17;100.00
45255;BME280;30989;52.078;21.014;2023-04-07T03:09:26;164836.13;;;4.14;100.00
45255;BME280;30989;52.078;21.014;2023-04-07T03:11:52;164844.13;;;4.17;100.00
45255;BME280;30989;52.078;21.014;2023-04-07T03:14:18;164844.13;;;4.17;100.00
45255;BME280;30989;52.078;21.014;2023-04-07T03:16:46;164852.13;;;4.20;100.00
45255;BME280;30989;52.078;21.014;2023-04-07T03:19:12;164856.13;;;4.22;100.00
45255;BME280;30989;52.078;21.014;2023-04-07T03:21:42;164857.44;;;4.22;100.00
45255;BME280;30989;52.078;21.014;2023-04-07T03:24:08;164856.13;;;4.22;100.00
45255;BME280;30989;52.078;21.014;2023-04-07T03:26:34;164857.44;;;4.22;100.00
45255;BME280;30989;52.078;21.014;2023-04-07T03:29:01;164854.78;;;4.21;100.00
45255;BME280;30989;52.078;21.014;2023-04-07T03:31:28;164860.13;;;4.24;100.00
45255;BME280;30989;52.078;21.014;2023-04-07T03:33:54;164873.47;;;4.29;100.00
45255;BME280;30989;52.078;21.014;2023-04-07T03:36:20;164869.47;;;4.27;100.00
45255;BME280;30989;52.078;21.014;2023-04-07T03:38:46;164870.78;;;4.28;100.00
45255;BME280;30989;52.078;21.014;2023-04-07T03:41:14;164874.78;;;4.29;100.00
45255;BME280;30989;52.078;21.014;2023-04-07T03:43:40;164878.78;;;4.31;100.00
45255;BME280;30989;52.078;21.014;2023-04-07T03:46:06;164870.78;;;4.28;100.00
45255;BME280;30989;52.078;21.014;2023-04-07T03:48:31;164882.78;;;4.32;100.00
45255;BME280;30989;52.078;21.014;2023-04-07T03:51:04;164892.13;;;4.36;100.00
45255;BME280;30989;52.078;21.014;2023-04-07T03:53:31;164894.81;;;4.37;100.00
45255;BME280;30989;52.078;21.014;2023-04-07T03:55:57;164889.47;;;4.35;100.00
45255;BME280;30989;52.078;21.014;2023-04-07T03:58:38;164900.13;;;4.39;100.00
45255;BME280;30989;52.078;21.014;2023-04-07T04:01:09;164897.47;;;4.38;100.00
45255;BME280;30989;52.078;21.014;2023-04-07T04:03:34;164908.13;;;4.42;100.00
45255;BME280;30989;52.078;21.014;2023-04-07T04:06:22;164910.81;;;4.43;100.00
45255;BME280;30989;52.078;21.014;2023-04-07T04:08:49;164917.47;;;4.45;100.00
45255;BME280;30989;52.078;21.014;2023-04-07T04:11:16;164921.47;;;4.47;100.00
45255;BME280;30989;52.078;21.014;2023-04-07T04:13:50;164930.81;;;4.50;100.00
45255;BME280;30989;52.078;21.014;2023-04-07T04:16:16;164934.81;;;4.52;100.00
45255;BME280;30989;52.078;21.014;2023-04-07T04:18:42;164940.16;;;4.54;100.00
45255;BME280;30989;52.078;21.014;2023-04-07T04:21:11;164945.50;;;4.56;100.00
45255;BME280;30989;52.078;21.014;2023-04-07T04:23:40;164945.50;;;4.56;100.00
45255;BME280;30989;52.078;21.014;2023-04-07T04:26:06;164956.16;;;4.60;100.00
45255;BME280;30989;52.078;21.014;2023-04-07T04:28:32;164958.81;;;4.61;100.00
45255;BME280;30989;52.078;21.014;2023-04-07T04:30:58;164964.16;;;4.63;100.00
45255;BME280;30989;52.078;21.014;2023-04-07T04:33:23;164961.50;;;4.62;100.00
45255;BME280;30989;52.078;21.014;2023-04-07T04:35:54;164974.84;;;4.67;100.00
45255;BME280;30989;52.078;21.014;2023-04-07T04:38:20;164977.50;;;4.68;100.00
45255;BME280;30989;52.078;21.014;2023-04-07T04:40:52;164977.50;;;4.68;100.00
45255;BME280;30989;52.078;21.014;2023-04-07T04:43:23;164966.84;;;4.64;100.00
45255;BME280;30989;52.078;21.014;2023-04-07T04:45:49;164993.50;;;4.74;100.00
45255;BME280;30989;52.078;21.014;2023-04-07T04:48:17;164993.50;;;4.74;100.00
45255;BME280;30989;52.078;21.014;2023-04-07T04:50:42;165002.84;;;4.78;100.00
45255;BME280;30989;52.078;21.014;2023-04-07T04:53:10;165004.19;;;4.78;100.00
45255;BME280;30989;52.078;21.014;2023-04-07T04:55:43;165008.19;;;4.80;100.00
45255;BME280;30989;52.078;21.014;2023-04-07T04:58:15;165017.53;;;4.83;100.00
45255;BME280;30989;52.078;21.014;2023-04-07T05:00:45;165016.19;;;4.83;100.00
45255;BME280;30989;52.078;21.014;2023-04-07T05:03:11;165017.53;;;4.83;100.00
45255;BME280;30989;52.078;21.014;2023-04-07T05:05:40;165013.53;;;4.82;100.00
45255;BME280;30989;52.078;21.014;2023-04-07T05:08:09;165029.53;;;4.88;100.00
45255;BME280;30989;52.078;21.014;2023-04-07T05:10:39;165033.53;;;4.90;100.00
45255;BME280;30989;52.078;21.014;2023-04-07T05:13:09;165036.22;;;4.91;100.00
45255;BME280;30989;52.078;21.014;2023-04-07T05:15:35;165038.88;;;4.92;100.00
45255;BME280;30989;52.078;21.014;2023-04-07T05:18:02;165041.53;;;4.93;100.00
45255;BME280;30989;52.078;21.014;2023-04-07T05:20:27;165050.88;;;4.96;100.00
45255;BME280;30989;52.078;21.014;2023-04-07T05:22:53;165057.56;;;4.99;100.00
45255;BME280;30989;52.078;21.014;2023-04-07T05:25:24;165058.91;;;4.99;100.00
45255;BME280;30989;52.078;21.014;2023-04-07T05:27:57;165060.22;;;5.00;100.00
45255;BME280;30989;52.078;21.014;2023-04-07T05:30:23;165072.25;;;5.04;100.00
45255;BME280;30989;52.078;21.014;2023-04-07T05:32:49;165081.59;;;5.08;100.00
45255;BME280;30989;52.078;21.014;2023-04-07T05:35:26;165078.91;;;5.07;100.00
45255;BME280;30989;52.078;21.014;2023-04-07T05:37:54;165100.25;;;5.15;100.00
45255;BME280;30989;52.078;21.014;2023-04-07T05:40:20;165113.66;;;5.20;100.00
45255;BME280;30989;52.078;21.014;2023-04-07T05:42:46;165121.66;;;5.23;100.00
45255;BME280;30989;52.078;21.014;2023-04-07T05:45:12;165127.00;;;5.25;100.00
45255;BME280;30989;52.078;21.014;2023-04-07T05:47:41;165132.34;;;5.27;100.00
45255;BME280;30989;52.078;21.014;2023-04-07T05:50:09;165143.03;;;5.31;100.00
45255;BME280;30989;52.078;21.014;2023-04-07T05:52:37;165152.38;;;5.35;100.00
45255;BME280;30989;52.078;21.014;2023-04-07T05:55:14;165153.69;;;5.35;100.00
45255;BME280;30989;52.078;21.014;2023-04-07T05:57:40;165151.03;;;5.34;100.00
45255;BME280;30989;52.078;21.014;2023-04-07T06:00:06;165169.72;;;5.41;100.00
45255;BME280;30989;52.078;21.014;2023-04-07T06:02:39;165176.38;;;5.44;100.00
45255;BME280;30989;52.078;21.014;2023-04-07T06:05:08;165183.06;;;5.46;100.00
45255;BME280;30989;52.078;21.014;2023-04-07T06:07:37;165184.41;;;5.47;100.00
45255;BME280;30989;52.078;21.014;2023-04-07T06:10:02;165195.06;;;5.51;100.00
45255;BME280;30989;52.078;21.014;2023-04-07T06:12:28;165199.09;;;5.53;100.00
45255;BME280;30989;52.078;21.014;2023-04-07T06:14:54;165207.09;;;5.56;100.00
45255;BME280;30989;52.078;21.014;2023-04-07T06:17:21;165204.41;;;5.55;100.00
45255;BME280;30989;52.078;21.014;2023-04-07T06:19:46;165209.75;;;5.57;100.00
45255;BME280;30989;52.078;21.014;2023-04-07T06:22:12;165211.09;;;5.57;100.00
45255;BME280;30989;52.078;21.014;2023-04-07T06:24:38;165220.44;;;5.61;100.00
45255;BME280;30989;52.078;21.014;2023-04-07T06:27:03;165215.09;;;5.59;100.00
45255;BME280;30989;52.078;21.014;2023-04-07T06:29:31;165223.09;;;5.62;100.00
45255;BME280;30989;52.078;21.014;2023-04-07T06:31:56;165243.13;;;5.69;100.00
45255;BME280;30989;52.078;21.014;2023-04-07T06:34:22;165243.13;;;5.69;100.00
45255;BME280;30989;52.078;21.014;2023-04-07T06:36:47;165245.81;;;5.70;100.00
45255;BME280;30989;52.078;21.014;2023-04-07T06:39:13;165256.50;;;5.74;100.00
45255;BME280;30989;52.078;21.014;2023-04-07T06:41:38;165260.50;;;5.76;100.00
45255;BME280;30989;52.078;21.014;2023-04-07T06:44:07;165276.50;;;5.82;100.00
45255;BME280;30989;52.078;21.014;2023-04-07T06:46:33;165276.50;;;5.82;100.00
45255;BME280;30989;52.078;21.014;2023-04-07T06:48:58;165297.94;;;5.90;100.00
45255;BME280;30989;52.078;21.014;2023-04-07T06:51:24;165312.63;;;5.96;100.00
45255;BME280;30989;52.078;21.014;2023-04-07T06:53:50;165319.28;;;5.98;100.00
45255;BME280;30989;52.078;21.014;2023-04-07T06:56:16;165327.31;;;6.01;100.00
45255;BME280;30989;52.078;21.014;2023-04-07T06:58:41;165333.97;;;6.04;100.00
45255;BME280;30989;52.078;21.014;2023-04-07T07:01:07;165343.31;;;6.07;100.00
45255;BME280;30989;52.078;21.014;2023-04-07T07:03:32;165351.34;;;6.10;100.00
45255;BME280;30989;52.078;21.014;2023-04-07T07:05:59;165367.38;;;6.17;100.00
45255;BME280;30989;52.078;21.014;2023-04-07T07:08:25;165372.72;;;6.19;100.00
45255;BME280;30989;52.078;21.014;2023-04-07T07:10:52;165383.41;;;6.23;100.00
45255;BME280;30989;52.078;21.014;2023-04-07T07:13:18;165388.72;;;6.25;100.00
45255;BME280;30989;52.078;21.014;2023-04-07T07:15:44;165386.06;;;6.24;100.00
45255;BME280;30989;52.078;21.014;2023-04-07T07:18:11;165394.06;;;6.27;100.00
45255;BME280;30989;52.078;21.014;2023-04-07T07:20:36;165402.09;;;6.30;100.00
45255;BME280;30989;52.078;21.014;2023-04-07T07:23:02;165412.78;;;6.34;100.00
45255;BME280;30989;52.078;21.014;2023-04-07T07:25:28;165418.13;;;6.36;100.00
45255;BME280;30989;52.078;21.014;2023-04-07T07:27:54;165447.50;;;6.47;100.00
45255;BME280;30989;52.078;21.014;2023-04-07T07:30:20;165452.84;;;6.49;100.00
45255;BME280;30989;52.078;21.014;2023-04-07T07:32:46;165467.53;;;6.55;100.00
45255;BME280;30989;52.078;21.014;2023-04-07T07:35:12;165484.91;;;6.61;100.00
45255;BME280;30989;52.078;21.014;2023-04-07T07:37:37;165491.59;;;6.64;100.00
45255;BME280;30989;52.078;21.014;2023-04-07T07:40:03;165506.28;;;6.69;100.00
45255;BME280;30989;52.078;21.014;2023-04-07T07:42:29;165520.97;;;6.75;100.00
45255;BME280;30989;52.078;21.014;2023-04-07T07:44:55;165534.34;;;6.80;100.00
45255;BME280;30989;52.078;21.014;2023-04-07T07:47:21;165539.69;;;6.82;100.00
45255;BME280;30989;52.078;21.014;2023-04-07T07:49:46;165558.38;;;6.89;100.00
45255;BME280;30989;52.078;21.014;2023-04-07T07:52:12;165574.41;;;6.95;100.00
45255;BME280;30989;52.078;21.014;2023-04-07T07:54:37;165589.13;;;7.01;100.00
45255;BME280;30989;52.078;21.014;2023-04-07T07:57:02;165610.50;;;7.09;100.00
45255;BME280;30989;52.078;21.014;2023-04-07T07:59:29;165618.50;;;7.12;100.00
45255;BME280;30989;52.078;21.014;2023-04-07T08:01:54;165637.22;;;7.19;100.00
45255;BME280;30989;52.078;21.014;2023-04-07T08:04:20;165663.94;;;7.29;100.00
45255;BME280;30989;52.078;21.014;2023-04-07T08:06:48;165677.31;;;7.34;100.00
45255;BME280;30989;52.078;21.014;2023-04-07T08:09:13;165697.38;;;7.42;100.00
45255;BME280;30989;52.078;21.014;2023-04-07T08:11:39;165721.44;;;7.51;100.00
45255;BME280;30989;52.078;21.014;2023-04-07T08:14:06;165738.81;;;7.58;100.00
45255;BME280;30989;52.078;21.014;2023-04-07T08:16:31;165746.81;;;7.61;100.00
45255;BME280;30989;52.078;21.014;2023-04-07T08:18:57;165761.53;;;7.66;100.00
45255;BME280;30989;52.078;21.014;2023-04-07T08:21:22;165765.53;;;7.68;100.00
45255;BME280;30989;52.078;21.014;2023-04-07T08:23:48;165768.22;;;7.69;100.00
45255;BME280;30989;52.078;21.014;2023-04-07T08:26:13;165794.94;;;7.79;100.00
45255;BME280;30989;52.078;21.014;2023-04-07T08:28:38;165800.28;;;7.81;100.00
45255;BME280;30989;52.078;21.014;2023-04-07T08:31:04;165790.94;;;7.78;100.00
45255;BME280;30989;52.078;21.014;2023-04-07T08:33:30;165802.97;;;7.82;100.00
45255;BME280;30989;52.078;21.014;2023-04-07T08:35:55;165802.97;;;7.82;100.00
45255;BME280;30989;52.078;21.014;2023-04-07T08:38:21;165809.66;;;7.85;100.00
45255;BME280;30989;52.078;21.014;2023-04-07T08:40:49;165824.38;;;7.90;100.00
45255;BME280;30989;52.078;21.014;2023-04-07T08:43:19;165833.72;;;7.94;100.00
45255;BME280;30989;52.078;21.014;2023-04-07T08:45:45;165851.09;;;8.00;100.00
45255;BME280;30989;52.078;21.014;2023-04-07T08:48:18;165868.47;;;8.07;100.00
45255;BME280;30989;52.078;21.014;2023-04-07T08:50:48;165899.25;;;8.19;100.00
45255;BME280;30989;52.078;21.014;2023-04-07T08:53:21;165925.97;;;8.29;100.00
45255;BME280;30989;52.078;21.014;2023-04-07T08:55:47;165956.81;;;8.40;100.00
45255;BME280;30989;52.078;21.014;2023-04-07T08:58:13;165982.22;;;8.50;100.00
45255;BME280;30989;52.078;21.014;2023-04-07T09:00:42;166003.59;;;8.58;100.00
45255;BME280;30989;52.078;21.014;2023-04-07T09:03:10;166019.66;;;8.64;100.00
45255;BME280;30989;52.078;21.014;2023-04-07T09:05:36;166051.78;;;8.77;100.00
45255;BME280;30989;52.078;21.014;2023-04-07T09:08:02;166049.09;;;8.76;100.00
45255;BME280;30989;52.078;21.014;2023-04-07T09:10:27;166046.41;;;8.75;100.00
45255;BME280;30989;52.078;21.014;2023-04-07T09:12:53;166046.41;;;8.75;100.00
45255;BME280;30989;52.078;21.014;2023-04-07T09:15:19;166049.09;;;8.76;100.00
45255;BME280;30989;52.078;21.014;2023-04-07T09:17:45;166046.41;;;8.75;100.00
45255;BME280;30989;52.078;21.014;2023-04-07T09:20:10;166078.53;;;8.87;100.00
45255;BME280;30989;52.078;21.014;2023-04-07T09:22:41;166103.94;;;8.96;100.00
45255;BME280;30989;52.078;21.014;2023-04-07T09:25:21;166132.03;;;9.07;100.00
45255;BME280;30989;52.078;21.014;2023-04-07T09:27:59;166162.81;;;9.19;100.00
45255;BME280;30989;52.078;21.014;2023-04-07T09:30:25;166166.84;;;9.20;100.00
45255;BME280;30989;52.078;21.014;2023-04-07T09:32:51;166161.47;;;9.18;100.00
45255;BME280;30989;52.078;21.014;2023-04-07T09:35:17;166149.44;;;9.14;100.00
45255;BME280;30989;52.078;21.014;2023-04-07T09:37:43;166142.75;;;9.11;100.00
45255;BME280;30989;52.078;21.014;2023-04-07T09:40:09;166148.09;;;9.13;100.00
45255;BME280;30989;52.078;21.014;2023-04-07T09:42:43;166150.78;;;9.14;100.00
45255;BME280;30989;52.078;21.014;2023-04-07T09:45:09;166148.09;;;9.13;100.00
45255;BME280;30989;52.078;21.014;2023-04-07T09:47:35;166162.81;;;9.19;100.00
45255;BME280;30989;52.078;21.014;2023-04-07T09:50:00;166160.16;;;9.18;100.00
45255;BME280;30989;52.078;21.014;2023-04-07T09:52:50;166156.13;;;9.16;100.00
45255;BME280;30989;52.078;21.014;2023-04-07T09:55:19;166152.13;;;9.15;100.00
45255;BME280;30989;52.078;21.014;2023-04-07T09:57:48;166140.06;;;9.10;100.00
45255;BME280;30989;52.078;21.014;2023-04-07T10:00:14;166150.78;;;9.14;100.00
45255;BME280;30989;52.078;21.014;2023-04-07T10:02:41;166158.81;;;9.17;100.00
45255;BME280;30989;52.078;21.014;2023-04-07T10:05:07;166169.50;;;9.21;100.00
45255;BME280;30989;52.078;21.014;2023-04-07T10:07:34;166184.22;;;9.27;100.00
45255;BME280;30989;52.078;21.014;2023-04-07T10:10:00;166194.94;;;9.31;100.00
45255;BME280;30989;52.078;21.014;2023-04-07T10:12:26;166220.38;;;9.41;100.00
45255;BME280;30989;52.078;21.014;2023-04-07T10:14:52;166228.38;;;9.44;100.00
45255;BME280;30989;52.078;21.014;2023-04-07T10:17:19;166235.09;;;9.46;100.00
45255;BME280;30989;52.078;21.014;2023-04-07T10:19:47;166252.47;;;9.53;100.00
45255;BME280;30989;52.078;21.014;2023-04-07T10:22:14;166249.81;;;9.52;100.00
45255;BME280;30989;52.078;21.014;2023-04-07T10:24:45;166239.09;;;9.48;100.00
45255;BME280;30989;52.078;21.014;2023-04-07T10:27:20;166237.75;;;9.47;100.00
45255;BME280;30989;52.078;21.014;2023-04-07T10:29:49;166243.13;;;9.49;100.00
45255;BME280;30989;52.078;21.014;2023-04-07T10:32:15;166243.13;;;9.49;100.00
45255;BME280;30989;52.078;21.014;2023-04-07T10:37:19;166300.66;;;9.71;100.00
45255;BME280;30989;52.078;21.014;2023-04-07T10:39:50;166311.38;;;9.75;100.00
45255;BME280;30989;52.078;21.014;2023-04-07T10:45:05;166324.78;;;9.80;100.00
45255;BME280;30989;52.078;21.014;2023-04-07T10:47:31;166316.72;;;9.77;100.00
45255;BME280;30989;52.078;21.014;2023-04-07T10:50:19;166300.66;;;9.71;100.00
45255;BME280;30989;52.078;21.014;2023-04-07T10:52:46;166314.06;;;9.76;100.00
45255;BME280;30989;52.078;21.014;2023-04-07T10:58:18;166269.88;;;9.59;100.00
45255;BME280;30989;52.078;21.014;2023-04-07T11:03:33;166247.13;;;9.51;100.00
45255;BME280;30989;52.078;21.014;2023-04-07T11:06:12;166236.41;;;9.47;100.00
45255;BME280;30989;52.078;21.014;2023-04-07T11:08:46;166240.44;;;9.48;100.00
45255;BME280;30989;52.078;21.014;2023-04-07T11:11:14;166237.75;;;9.47;100.00
45255;BME280;30989;52.078;21.014;2023-04-07T11:16:07;166240.44;;;9.48;100.00
45255;BME280;30989;52.078;21.014;2023-04-07T11:18:34;166243.13;;;9.49;100.00
45255;BME280;30989;52.078;21.014;2023-04-07T11:21:00;166231.06;;;9.45;100.00
45255;BME280;30989;52.078;21.014;2023-04-07T11:23:27;166241.78;;;9.49;100.00
45255;BME280;30989;52.078;21.014;2023-04-07T11:25:59;166245.78;;;9.50;100.00
45255;BME280;30989;52.078;21.014;2023-04-07T11:28:29;166235.09;;;9.46;100.00
45255;BME280;30989;52.078;21.014;2023-04-07T11:30:55;166241.78;;;9.49;100.00
45255;BME280;30989;52.078;21.014;2023-04-07T11:33:28;166240.44;;;9.48;100.00
45255;BME280;30989;52.078;21.014;2023-04-07T11:35:58;166236.41;;;9.47;100.00
45255;BME280;30989;52.078;21.014;2023-04-07T11:38:26;166236.41;;;9.47;100.00
45255;BME280;30989;52.078;21.014;2023-04-07T11:40:53;166245.78;;;9.50;100.00
45255;BME280;30989;52.078;21.014;2023-04-07T11:43:23;166248.47;;;9.51;100.00
45255;BME280;30989;52.078;21.014;2023-04-07T11:46:14;166263.19;;;9.57;100.00
45255;BME280;30989;52.078;21.014;2023-04-07T11:48:41;166263.19;;;9.57;100.00
45255;BME280;30989;52.078;21.014;2023-04-07T11:51:21;166264.53;;;9.57;100.00
45255;BME280;30989;52.078;21.014;2023-04-07T11:53:54;166260.50;;;9.56;100.00
45255;BME280;30989;52.078;21.014;2023-04-07T11:56:21;166252.47;;;9.53;100.00
45255;BME280;30989;52.078;21.014;2023-04-07T11:58:48;166247.13;;;9.51;100.00
45255;BME280;30989;52.078;21.014;2023-04-07T12:01:14;166239.09;;;9.48;100.00
45255;BME280;30989;52.078;21.014;2023-04-07T12:03:57;166255.16;;;9.54;100.00
45255;BME280;30989;52.078;21.014;2023-04-07T12:06:27;166265.88;;;9.58;100.00
45255;BME280;30989;52.078;21.014;2023-04-07T12:08:53;166289.97;;;9.67;100.00
45255;BME280;30989;52.078;21.014;2023-04-07T12:11:18;166319.41;;;9.78;100.00
45255;BME280;30989;52.078;21.014;2023-04-07T12:13:44;166343.50;;;9.87;100.00
45255;BME280;30989;52.078;21.014;2023-04-07T12:16:09;166367.59;;;9.96;100.00
45255;BME280;30989;52.078;21.014;2023-04-07T12:18:35;166367.59;;;9.96;100.00
45255;BME280;30989;52.078;21.014;2023-04-07T12:21:01;166346.19;;;9.88;100.00
45255;BME280;30989;52.078;21.014;2023-04-07T12:23:26;166335.47;;;9.84;100.00
45255;BME280;30989;52.078;21.014;2023-04-07T12:25:52;166340.84;;;9.86;100.00
45255;BME280;30989;52.078;21.014;2023-04-07T12:28:17;166362.25;;;9.94;100.00
45255;BME280;30989;52.078;21.014;2023-04-07T12:30:43;166371.63;;;9.98;100.00
45255;BME280;30989;52.078;21.014;2023-04-07T12:33:08;166395.72;;;10.07;100.00
45255;BME280;30989;52.078;21.014;2023-04-07T12:35:34;166411.78;;;10.13;100.00
45255;BME280;30989;52.078;21.014;2023-04-07T12:37:59;166431.94;;;10.21;100.00
45255;BME280;30989;52.078;21.014;2023-04-07T12:40:25;166452.00;;;10.28;100.00
45255;BME280;30989;52.078;21.014;2023-04-07T12:42:51;166450.69;;;10.28;100.00
45255;BME280;30989;52.078;21.014;2023-04-07T12:45:16;166485.53;;;10.41;100.00
45255;BME280;30989;52.078;21.014;2023-04-07T12:47:43;166493.56;;;10.44;100.00
45255;BME280;30989;52.078;21.014;2023-04-07T12:50:09;166513.66;;;10.52;100.00
45255;BME280;30989;52.078;21.014;2023-04-07T12:52:34;166536.44;;;10.60;100.00
45255;BME280;30989;52.078;21.014;2023-04-07T12:55:00;166576.63;;;10.76;100.00
45255;BME280;30989;52.078;21.014;2023-04-07T12:57:25;166666.38;;;11.10;100.00
45255;BME280;30989;52.078;21.014;2023-04-07T12:59:51;166780.28;;;11.53;100.00